createdAt,value
2023-01-03T00:01:47.395Z,98679.66
2023-01-03T00:04:16.943Z,98674.61
2023-01-03T00:06:47.785Z,98672.70
2023-01-03T00:09:18.554Z,98677.96
2023-01-03T00:12:07.976Z,98676.50
2023-01-03T00:14:39.275Z,98679.08
2023-01-03T00:17:09.844Z,98685.88
2023-01-03T00:19:43.667Z,98688.11
2023-01-03T00:22:13.804Z,98689.39
2023-01-03T00:24:46.704Z,98692.19
2023-01-03T00:27:15.917Z,98692.98
2023-01-03T00:29:44.644Z,98690.82
2023-01-03T00:32:13.141Z,98693.77
2023-01-03T00:34:43.985Z,98693.61
2023-01-03T00:37:13.572Z,98696.60
2023-01-03T00:39:41.691Z,98697.79
2023-01-03T00:42:09.697Z,98699.73
2023-01-03T00:44:37.800Z,98697.44
2023-01-03T00:47:05.958Z,98699.52
2023-01-03T00:49:34.148Z,98698.08
2023-01-03T00:52:02.149Z,98695.11
2023-01-03T00:54:30.320Z,98690.74
2023-01-03T00:56:58.478Z,98690.29
2023-01-03T00:59:26.990Z,98688.91
2023-01-03T01:01:56.854Z,98691.45
2023-01-03T01:04:30.828Z,98687.70
2023-01-03T01:07:01.712Z,98688.02
2023-01-03T01:09:34.271Z,98686.70
2023-01-03T01:12:03.723Z,98687.39
2023-01-03T01:14:33.645Z,98687.85
2023-01-03T01:17:05.432Z,98683.17
2023-01-03T01:19:36.426Z,98687.33
2023-01-03T01:22:05.145Z,98686.08
2023-01-03T01:24:34.106Z,98680.03
2023-01-03T01:27:02.509Z,98681.52
2023-01-03T01:29:30.580Z,98679.60
2023-01-03T01:31:58.817Z,98676.35
2023-01-03T01:34:27.008Z,98678.00
2023-01-03T01:36:55.256Z,98675.73
2023-01-03T01:39:26.609Z,98676.71
2023-01-03T01:42:20.794Z,98670.31
2023-01-03T01:44:54.446Z,98665.73
2023-01-03T01:47:31.788Z,98668.20
2023-01-03T01:50:05.711Z,98668.44
2023-01-03T01:52:36.963Z,98669.91
2023-01-03T01:55:07.487Z,98676.08
2023-01-03T01:57:37.207Z,98681.54
2023-01-03T02:00:07.937Z,98679.85
2023-01-03T02:02:44.237Z,98682.66
2023-01-03T02:05:13.530Z,98685.33
2023-01-03T02:07:42.669Z,98687.21
2023-01-03T02:10:10.795Z,98682.20
2023-01-03T02:13:05.259Z,98683.42
2023-01-03T02:15:33.348Z,98685.80
2023-01-03T02:18:32.392Z,98685.59
2023-01-03T02:21:42.647Z,98691.26
2023-01-03T02:24:28.376Z,98694.69
2023-01-03T02:27:30.707Z,98692.23
2023-01-03T02:30:34.485Z,98684.91
2023-01-03T02:33:24.149Z,98680.81
2023-01-03T02:36:22.643Z,98687.80
2023-01-03T02:39:00.481Z,98688.05
2023-01-03T02:41:28.507Z,98690.77
2023-01-03T02:44:02.307Z,98695.98
2023-01-03T02:46:51.846Z,98699.12
2023-01-03T02:49:33.077Z,98694.86
2023-01-03T02:52:17.196Z,98693.71
2023-01-03T02:55:14.775Z,98692.52
2023-01-03T02:57:48.315Z,98695.57
2023-01-03T03:00:20.271Z,98695.16
2023-01-03T03:02:53.408Z,98688.96
2023-01-03T03:06:11.142Z,98690.13
2023-01-03T03:08:39.446Z,98687.02
2023-01-03T03:11:26.444Z,98685.55
2023-01-03T03:14:00.983Z,98688.38
2023-01-03T03:16:49.806Z,98687.73
2023-01-03T03:19:39.735Z,98687.74
2023-01-03T03:22:53.118Z,98694.13
2023-01-03T03:25:30.809Z,98693.47
2023-01-03T03:28:21.234Z,98694.04
2023-01-03T03:30:53.006Z,98697.33
2023-01-03T03:33:22.305Z,98696.63
2023-01-03T03:36:17.241Z,98702.70
2023-01-03T03:38:45.992Z,98707.33
2023-01-03T03:41:47.949Z,98710.23
2023-01-03T03:45:03.324Z,98709.29
2023-01-03T03:48:02.168Z,98703.69
2023-01-03T03:50:41.414Z,98700.29
2023-01-03T03:53:10.979Z,98694.39
2023-01-03T03:55:46.241Z,98691.94
2023-01-03T03:58:20.969Z,98696.95
2023-01-03T04:00:50.647Z,98700.02
2023-01-03T04:03:19.998Z,98697.09
2023-01-03T04:05:58.337Z,98693.36
2023-01-03T04:08:26.831Z,98694.87
2023-01-03T04:11:06.019Z,98694.30
2023-01-03T04:13:36.179Z,98697.34
2023-01-03T04:16:05.619Z,98697.71
2023-01-03T04:18:33.828Z,98699.59
2023-01-03T04:21:02.190Z,98698.66
2023-01-03T04:23:30.241Z,98700.06
2023-01-03T04:25:58.318Z,98702.89
2023-01-03T04:28:26.311Z,98705.30
2023-01-03T04:30:54.298Z,98703.45
2023-01-03T04:33:22.372Z,98708.23
2023-01-03T04:35:50.409Z,98707.81
2023-01-03T04:38:18.499Z,98704.05
2023-01-03T04:40:46.916Z,98704.89
2023-01-03T04:43:34.012Z,98708.17
2023-01-03T04:46:02.018Z,98707.53
2023-01-03T04:48:30.143Z,98710.88
2023-01-03T04:50:59.826Z,98712.92
2023-01-03T04:53:28.273Z,98712.65
2023-01-03T04:55:57.163Z,98716.54
2023-01-03T04:58:25.951Z,98721.89
2023-01-03T05:01:01.024Z,98726.92
2023-01-03T05:03:30.196Z,98728.43
2023-01-03T05:06:02.797Z,98736.63
2023-01-03T05:08:31.160Z,98735.06
2023-01-03T05:10:59.286Z,98737.52
2023-01-03T05:13:27.323Z,98739.30
2023-01-03T05:15:55.318Z,98737.51
2023-01-03T05:18:23.585Z,98736.67
2023-01-03T05:21:10.006Z,98742.44
2023-01-03T05:23:56.769Z,98740.80
2023-01-03T05:26:24.860Z,98742.92
2023-01-03T05:28:54.000Z,98744.77
2023-01-03T05:31:22.199Z,98740.82
2023-01-03T05:33:50.305Z,98741.18
2023-01-03T05:36:18.289Z,98738.35
2023-01-03T05:38:46.438Z,98735.73
2023-01-03T05:41:14.528Z,98742.04
2023-01-03T05:43:43.326Z,98747.20
2023-01-03T05:46:11.375Z,98747.32
2023-01-03T05:48:39.466Z,98750.82
2023-01-03T05:51:07.416Z,98747.13
2023-01-03T05:53:35.433Z,98748.77
2023-01-03T05:56:06.882Z,98749.86
2023-01-03T05:58:34.932Z,98741.63
2023-01-03T06:01:09.456Z,98747.72
2023-01-03T06:03:37.927Z,98745.65
2023-01-03T06:06:07.442Z,98749.66
2023-01-03T06:08:36.183Z,98751.45
2023-01-03T06:11:08.636Z,98749.73
2023-01-03T06:13:36.850Z,98750.66
2023-01-03T06:16:29.372Z,98742.02
2023-01-03T06:18:57.807Z,98746.88
2023-01-03T06:21:25.994Z,98750.13
2023-01-03T06:23:54.223Z,98751.55
2023-01-03T06:26:24.049Z,98753.34
2023-01-03T06:28:52.812Z,98763.84
2023-01-03T06:31:20.986Z,98764.08
2023-01-03T06:33:49.410Z,98766.80
2023-01-03T06:36:19.678Z,98764.80
2023-01-03T06:38:47.945Z,98761.90
2023-01-03T06:41:16.364Z,98769.70
2023-01-03T06:43:44.804Z,98770.27
2023-01-03T06:46:33.142Z,98773.98
2023-01-03T06:49:19.781Z,98777.42
2023-01-03T06:52:08.066Z,98781.83
2023-01-03T06:54:37.808Z,98785.52
2023-01-03T06:57:06.267Z,98784.52
2023-01-03T06:59:34.485Z,98784.23
2023-01-03T07:02:02.628Z,98786.96
2023-01-03T07:04:30.995Z,98787.88
2023-01-03T07:06:59.125Z,98791.08
2023-01-03T07:09:28.248Z,98794.11
2023-01-03T07:11:56.357Z,98801.52
2023-01-03T07:14:24.371Z,98796.29
2023-01-03T07:16:52.402Z,98795.23
2023-01-03T07:19:20.414Z,98802.20
2023-01-03T07:21:48.486Z,98803.84
2023-01-03T07:24:18.858Z,98801.11
2023-01-03T07:26:47.069Z,98799.98
2023-01-03T07:29:15.148Z,98801.95
2023-01-03T07:31:43.287Z,98799.92
2023-01-03T07:34:12.208Z,98803.77
2023-01-03T07:36:40.522Z,98801.20
2023-01-03T07:39:08.553Z,98801.67
2023-01-03T07:41:55.224Z,98806.08
2023-01-03T07:44:23.167Z,98803.08
2023-01-03T07:46:51.545Z,98801.80
2023-01-03T07:49:19.612Z,98801.28
2023-01-03T07:51:47.672Z,98806.91
2023-01-03T07:54:15.766Z,98802.36
2023-01-03T07:56:43.800Z,98804.68
2023-01-03T07:59:11.967Z,98803.55
2023-01-03T08:01:40.073Z,98797.63
2023-01-03T08:04:08.153Z,98798.19
2023-01-03T08:06:36.255Z,98799.58
2023-01-03T08:09:23.205Z,98799.34
2023-01-03T08:12:09.811Z,98803.48
2023-01-03T08:14:37.743Z,98804.77
2023-01-03T08:17:05.856Z,98801.77
2023-01-03T08:19:33.884Z,98799.07
2023-01-03T08:22:01.903Z,98808.01
2023-01-03T08:24:29.826Z,98809.86
2023-01-03T08:26:57.934Z,98802.45
2023-01-03T08:29:25.923Z,98803.02
2023-01-03T08:31:56.206Z,98810.02
2023-01-03T08:34:29.894Z,98810.63
2023-01-03T08:37:02.242Z,98803.69
2023-01-03T08:39:35.252Z,98801.74
2023-01-03T08:42:05.520Z,98805.02
2023-01-03T08:44:33.901Z,98806.26
2023-01-03T08:47:03.525Z,98803.10
2023-01-03T08:49:32.055Z,98805.56
2023-01-03T08:52:00.134Z,98808.57
2023-01-03T08:54:28.131Z,98810.86
2023-01-03T08:56:56.311Z,98811.63
2023-01-03T08:59:24.337Z,98813.27
2023-01-03T09:01:58.432Z,98812.61
2023-01-03T09:04:27.153Z,98810.80
2023-01-03T09:06:55.146Z,98805.21
2023-01-03T09:09:23.418Z,98806.01
2023-01-03T09:11:51.486Z,98802.42
2023-01-03T09:14:19.689Z,98808.45
2023-01-03T09:16:49.445Z,98803.23
2023-01-03T09:19:17.870Z,98804.23
2023-01-03T09:21:46.081Z,98801.89
2023-01-03T09:24:14.147Z,98803.43
2023-01-03T09:26:42.266Z,98795.19
2023-01-03T09:29:10.331Z,98793.77
2023-01-03T09:31:40.159Z,98797.14
2023-01-03T09:34:08.569Z,98790.27
2023-01-03T09:36:38.887Z,98790.48
2023-01-03T09:39:07.349Z,98790.73
2023-01-03T09:41:36.001Z,98787.68
2023-01-03T09:44:07.357Z,98789.48
2023-01-03T09:46:35.635Z,98784.96
2023-01-03T09:49:07.169Z,98779.42
2023-01-03T09:51:56.936Z,98778.94
2023-01-03T09:54:50.835Z,98778.63
2023-01-03T09:57:52.563Z,98775.67
2023-01-03T10:00:57.929Z,98773.30
2023-01-03T10:03:52.343Z,98771.72
2023-01-03T10:06:26.996Z,98769.18
2023-01-03T10:09:36.327Z,98761.77
2023-01-03T10:12:04.387Z,98763.64
2023-01-03T10:14:59.692Z,98764.85
2023-01-03T10:17:27.615Z,98755.84
2023-01-03T10:20:14.457Z,98749.92
2023-01-03T10:22:42.525Z,98754.38
2023-01-03T10:25:14.287Z,98754.08
2023-01-03T10:27:51.454Z,98748.95
2023-01-03T10:30:27.763Z,98747.60
2023-01-03T10:33:19.261Z,98742.71
2023-01-03T10:35:47.224Z,98742.70
2023-01-03T10:38:16.695Z,98743.40
2023-01-03T10:40:47.964Z,98744.00
2023-01-03T10:43:20.301Z,98742.70
2023-01-03T10:46:16.317Z,98742.13
2023-01-03T10:49:25.410Z,98741.92
2023-01-03T10:51:43.482Z,98737.42
2023-01-03T10:54:21.479Z,98739.92
2023-01-03T10:56:50.484Z,98735.50
2023-01-03T10:59:43.754Z,98727.39
2023-01-03T11:02:13.119Z,98720.48
2023-01-03T11:04:41.962Z,98719.94
2023-01-03T11:07:12.184Z,98713.48
2023-01-03T11:09:51.525Z,98713.70
2023-01-03T11:12:36.228Z,98715.52
2023-01-03T11:15:38.684Z,98709.08
2023-01-03T11:18:18.785Z,98714.67
2023-01-03T11:20:49.882Z,98711.91
2023-01-03T11:23:43.765Z,98700.10
2023-01-03T11:26:39.707Z,98695.72
2023-01-03T11:29:35.830Z,98700.70
2023-01-03T11:32:03.875Z,98691.46
2023-01-03T11:35:23.432Z,98693.81
2023-01-03T11:38:05.168Z,98685.90
2023-01-03T11:40:59.512Z,98678.75
2023-01-03T12:40:58.276Z,98670.44
2023-01-03T12:43:47.071Z,98665.98
2023-01-03T12:46:24.517Z,98656.59
2023-01-03T12:49:04.890Z,98660.11
2023-01-03T12:51:33.044Z,98661.16
2023-01-03T12:54:14.311Z,98660.64
2023-01-03T12:57:03.975Z,98663.84
2023-01-03T12:59:53.852Z,98660.73
2023-01-03T13:02:22.017Z,98669.38
2023-01-03T13:04:51.561Z,98677.29
2023-01-03T13:07:29.248Z,98680.66
2023-01-03T13:10:26.528Z,98682.77
2023-01-03T13:12:54.903Z,98681.48
2023-01-03T13:15:44.417Z,98680.67
2023-01-03T13:18:31.536Z,98680.67
2023-01-03T13:21:00.129Z,98684.50
2023-01-03T13:23:30.906Z,98678.86
2023-01-03T13:26:10.332Z,98683.89
2023-01-03T13:28:39.627Z,98688.92
2023-01-03T13:31:23.197Z,98690.13
2023-01-03T13:33:56.366Z,98699.99
2023-01-03T13:36:25.195Z,98704.52
2023-01-03T13:38:53.316Z,98703.59
2023-01-03T13:41:41.714Z,98705.71
2023-01-03T13:44:19.803Z,98704.91
2023-01-03T13:46:48.397Z,98709.56
2023-01-03T13:49:22.896Z,98713.22
2023-01-03T13:51:52.588Z,98713.19
2023-01-03T13:54:20.609Z,98717.60
2023-01-03T13:56:48.672Z,98717.45
2023-01-03T13:59:32.029Z,98719.52
2023-01-03T14:02:06.448Z,98721.09
2023-01-03T14:04:49.779Z,98719.29
2023-01-03T14:07:39.707Z,98722.20
2023-01-03T14:10:10.742Z,98720.98
2023-01-03T14:12:47.728Z,98720.61
2023-01-03T14:15:25.968Z,98722.27
2023-01-03T14:17:57.360Z,98719.16
2023-01-03T14:20:34.642Z,98726.30
2023-01-03T14:23:23.777Z,98728.05
2023-01-03T14:25:54.371Z,98726.40
2023-01-03T14:28:33.961Z,98729.59
2023-01-03T14:31:06.967Z,98728.73
2023-01-03T14:33:49.583Z,98729.64
2023-01-03T14:36:17.960Z,98730.67
2023-01-03T14:38:51.560Z,98729.72
2023-01-03T14:41:40.222Z,98729.05
2023-01-03T14:44:11.400Z,98732.41
2023-01-03T14:46:42.822Z,98734.47
2023-01-03T14:49:21.837Z,98736.83
2023-01-03T14:51:50.101Z,98734.70
2023-01-03T14:54:19.096Z,98738.23
2023-01-03T14:56:47.560Z,98740.40
2023-01-03T14:59:17.421Z,98740.69
2023-01-03T15:01:46.827Z,98736.61
2023-01-03T15:04:16.622Z,98740.61
2023-01-03T15:07:09.635Z,98742.08
2023-01-03T15:09:39.545Z,98747.97
2023-01-03T15:12:08.005Z,98746.27
2023-01-03T15:14:39.407Z,98753.98
2023-01-03T15:17:10.996Z,98754.59
2023-01-03T15:19:41.464Z,98756.77
2023-01-03T15:22:09.555Z,98759.98
2023-01-03T15:24:43.677Z,98758.63
2023-01-03T15:27:34.271Z,98760.30
2023-01-03T15:30:15.494Z,98760.12
2023-01-03T15:32:49.049Z,98761.92
2023-01-03T15:35:29.602Z,98761.55
2023-01-03T15:37:58.993Z,98760.27
2023-01-03T15:40:30.036Z,98760.20
2023-01-03T15:43:23.355Z,98767.66
2023-01-03T15:45:52.323Z,98765.00
2023-01-03T15:48:23.488Z,98768.34
2023-01-03T15:50:53.531Z,98769.91
2023-01-03T15:53:36.466Z,98772.10
2023-01-03T15:56:14.710Z,98771.59
2023-01-03T15:58:43.281Z,98770.80
2023-01-03T16:01:12.221Z,98767.76
2023-01-03T16:03:40.510Z,98771.20
2023-01-03T16:06:08.919Z,98772.95
2023-01-03T16:08:37.947Z,98775.20
2023-01-03T16:11:18.437Z,98776.65
2023-01-03T16:13:53.174Z,98777.46
2023-01-03T16:16:26.915Z,98778.42
2023-01-03T16:18:55.351Z,98775.72
2023-01-03T16:21:27.142Z,98774.55
2023-01-03T16:23:55.226Z,98772.75
2023-01-03T16:26:23.226Z,98775.33
2023-01-03T16:28:51.390Z,98774.05
2023-01-03T16:31:28.576Z,98776.52
2023-01-03T16:33:56.904Z,98776.80
2023-01-03T16:36:39.766Z,98778.55
2023-01-03T16:39:26.981Z,98777.54
2023-01-03T16:42:14.112Z,98775.10
2023-01-03T16:44:45.240Z,98772.34
2023-01-03T16:47:20.677Z,98773.52
2023-01-03T16:49:56.015Z,98777.64
2023-01-03T16:52:31.880Z,98781.48
2023-01-03T16:55:13.212Z,98777.27
2023-01-03T16:57:41.187Z,98779.10
2023-01-03T17:00:17.316Z,98779.41
2023-01-03T17:02:45.929Z,98783.17
2023-01-03T17:05:15.232Z,98786.20
2023-01-03T17:07:45.015Z,98788.48
2023-01-03T17:10:37.606Z,98790.42
2023-01-03T17:13:12.590Z,98784.80
2023-01-03T17:15:41.647Z,98788.95
2023-01-03T17:18:18.837Z,98789.20
2023-01-03T17:20:51.595Z,98791.13
2023-01-03T17:23:20.020Z,98790.90
2023-01-03T17:25:48.637Z,98791.13
2023-01-03T17:28:16.578Z,98788.63
2023-01-03T17:30:44.786Z,98787.73
2023-01-03T17:33:17.333Z,98784.45
2023-01-03T17:35:46.349Z,98781.64
2023-01-03T17:38:31.089Z,98784.89
2023-01-03T17:40:59.339Z,98783.69
2023-01-03T17:43:27.780Z,98783.19
2023-01-03T17:46:22.607Z,98785.27
2023-01-03T17:49:10.060Z,98785.98
2023-01-03T17:51:38.105Z,98788.91
2023-01-03T17:54:06.289Z,98789.33
2023-01-03T17:56:38.280Z,98792.81
2023-01-03T17:59:06.625Z,98798.05
2023-01-03T18:01:34.774Z,98796.70
2023-01-03T18:04:02.967Z,98800.64
2023-01-03T18:06:31.325Z,98803.08
2023-01-03T18:09:04.005Z,98801.21
2023-01-03T18:11:32.385Z,98796.86
2023-01-03T18:14:00.619Z,98797.27
2023-01-03T18:16:28.774Z,98805.70
2023-01-03T18:18:57.003Z,98807.36
2023-01-03T18:21:28.039Z,98803.88
2023-01-03T18:24:20.500Z,98804.56
2023-01-03T18:26:51.559Z,98800.83
2023-01-03T18:29:19.801Z,98802.70
2023-01-03T18:31:48.093Z,98804.43
2023-01-03T18:34:16.132Z,98801.90
2023-01-03T18:36:48.179Z,98800.34
2023-01-03T18:39:25.081Z,98802.39
2023-01-03T18:41:53.324Z,98802.80
2023-01-03T18:44:25.031Z,98807.55
2023-01-03T18:46:53.671Z,98811.50
2023-01-03T18:49:21.710Z,98814.40
2023-01-03T18:51:54.494Z,98816.16
2023-01-03T18:54:22.542Z,98822.56
2023-01-03T18:56:50.832Z,98820.02
2023-01-03T18:59:24.814Z,98814.55
2023-01-03T19:01:53.721Z,98816.32
2023-01-03T19:04:22.051Z,98816.88
2023-01-03T19:06:53.273Z,98815.26
2023-01-03T19:09:23.429Z,98817.00
2023-01-03T19:11:53.311Z,98815.91
2023-01-03T19:14:21.776Z,98819.45
2023-01-03T19:16:50.109Z,98817.98
2023-01-03T19:19:18.136Z,98825.83
2023-01-03T19:21:46.996Z,98825.41
2023-01-03T19:24:24.037Z,98822.53
2023-01-03T19:26:58.014Z,98829.08
2023-01-03T19:29:32.026Z,98825.95
2023-01-03T19:32:00.146Z,98824.02
2023-01-03T19:34:29.100Z,98824.62
2023-01-03T19:37:00.715Z,98823.16
2023-01-03T19:39:35.186Z,98819.98
2023-01-03T19:42:26.625Z,98821.16
2023-01-03T19:44:55.333Z,98826.36
2023-01-03T19:47:24.367Z,98829.23
2023-01-03T19:49:52.629Z,98826.02
2023-01-03T19:52:20.877Z,98827.61
2023-01-03T19:54:48.944Z,98834.63
2023-01-03T19:57:21.449Z,98833.70
2023-01-03T20:00:00.517Z,98827.59
2023-01-03T20:02:39.498Z,98820.65
2023-01-03T20:05:16.593Z,98822.61
2023-01-03T20:07:45.292Z,98828.58
2023-01-03T20:10:15.680Z,98829.94
2023-01-03T20:12:43.798Z,98830.45
2023-01-03T20:15:24.489Z,98826.44
2023-01-03T20:17:53.088Z,98829.20
2023-01-03T20:20:22.705Z,98833.91
2023-01-03T20:23:05.903Z,98834.70
2023-01-03T20:25:35.694Z,98837.07
2023-01-03T20:28:04.010Z,98830.98
2023-01-03T20:30:33.067Z,98833.30
2023-01-03T20:33:01.449Z,98828.39
2023-01-03T20:38:27.495Z,98816.29
2023-01-03T20:40:56.435Z,98819.42
2023-01-03T20:43:24.572Z,98817.48
2023-01-03T20:45:55.697Z,98819.69
2023-01-03T20:48:26.206Z,98816.25
2023-01-03T20:50:55.149Z,98818.36
2023-01-03T20:53:27.137Z,98818.17
2023-01-03T20:55:55.459Z,98819.98
2023-01-03T20:58:27.770Z,98818.18
2023-01-03T21:01:04.211Z,98815.16
2023-01-03T21:03:36.960Z,98808.08
2023-01-03T21:06:34.544Z,98807.89
2023-01-03T21:09:02.624Z,98806.20
2023-01-03T21:11:32.524Z,98802.97
2023-01-03T21:14:01.223Z,98803.65
2023-01-03T21:16:38.202Z,98803.00
2023-01-03T21:19:20.763Z,98801.20
2023-01-03T21:21:51.440Z,98795.78
2023-01-03T21:24:22.085Z,98791.47
2023-01-03T21:26:50.300Z,98790.60
2023-01-03T21:29:18.516Z,98793.14
2023-01-03T21:31:46.644Z,98791.83
2023-01-03T21:34:18.767Z,98794.77
2023-01-03T21:36:47.111Z,98797.16
2023-01-03T21:39:15.507Z,98799.65
2023-01-03T21:42:02.554Z,98811.02
2023-01-03T21:44:30.662Z,98816.92
2023-01-03T21:46:58.551Z,98817.39
2023-01-03T21:49:26.585Z,98815.48
2023-01-03T21:51:54.563Z,98823.01
2023-01-03T21:54:22.638Z,98821.19
2023-01-03T21:56:50.645Z,98812.79
2023-01-03T21:59:18.742Z,98809.34
2023-01-03T22:02:06.432Z,98805.38
2023-01-03T22:04:35.007Z,98799.73
2023-01-03T22:07:03.035Z,98805.31
2023-01-03T22:09:50.519Z,98800.73
2023-01-03T22:12:27.113Z,98795.54
2023-01-03T22:14:55.561Z,98793.10
2023-01-03T22:17:23.602Z,98797.95
2023-01-03T22:19:51.625Z,98800.21
2023-01-03T22:22:19.612Z,98797.34
2023-01-03T22:24:47.604Z,98798.64
2023-01-03T22:27:16.823Z,98805.97
2023-01-03T22:29:44.883Z,98812.11
2023-01-03T22:32:12.953Z,98814.67
2023-01-03T22:34:40.954Z,98816.42
2023-01-03T22:37:09.046Z,98812.94
2023-01-03T22:39:37.107Z,98813.43
2023-01-03T22:42:05.322Z,98813.27
2023-01-03T22:44:33.520Z,98816.25
2023-01-03T22:47:01.585Z,98816.70
2023-01-03T22:49:29.717Z,98818.73
2023-01-03T22:51:57.767Z,98817.87
2023-01-03T22:54:25.848Z,98817.83
2023-01-03T22:56:57.244Z,98818.52
2023-01-03T22:59:25.301Z,98813.70
2023-01-03T23:01:53.503Z,98811.41
2023-01-03T23:04:23.299Z,98811.17
2023-01-03T23:06:51.369Z,98802.39
2023-01-03T23:09:19.961Z,98809.94
2023-01-03T23:12:07.255Z,98803.82
2023-01-03T23:14:35.327Z,98798.94
2023-01-03T23:17:22.932Z,98802.05
2023-01-03T23:19:50.901Z,98801.20
2023-01-03T23:22:18.976Z,98802.31
2023-01-03T23:24:47.169Z,98800.36
2023-01-03T23:27:15.253Z,98805.88
2023-01-03T23:29:43.297Z,98799.92
2023-01-03T23:32:11.277Z,98801.78
2023-01-03T23:34:39.364Z,98800.24
2023-01-03T23:37:07.271Z,98792.89
2023-01-03T23:39:35.600Z,98787.34
2023-01-03T23:42:03.688Z,98788.04
2023-01-03T23:44:32.900Z,98786.03
2023-01-03T23:47:03.775Z,98788.61
2023-01-03T23:49:34.494Z,98787.48
2023-01-03T23:52:02.443Z,98789.83
2023-01-03T23:54:30.483Z,98784.73
2023-01-03T23:56:58.561Z,98782.60
2023-01-03T23:59:26.663Z,98785.08
